createdAt,value
2022-10-11T00:02:06.642Z,24.86
2022-10-11T00:04:48.976Z,25.15
2022-10-11T00:07:38.632Z,25.09
2022-10-11T00:10:20.938Z,24.89
2022-10-11T00:13:10.721Z,25.00
2022-10-11T00:15:52.945Z,24.83
2022-10-11T00:18:44.634Z,24.87
2022-10-11T00:21:26.957Z,24.98
2022-10-11T00:24:15.657Z,24.87
2022-10-11T00:26:57.957Z,24.92
2022-10-11T00:29:46.646Z,24.95
2022-10-11T00:32:28.899Z,24.92
2022-10-11T00:35:17.643Z,25.02
2022-10-11T00:37:59.978Z,24.98
2022-10-11T00:40:48.873Z,24.89
2022-10-11T00:43:34.302Z,24.85
2022-10-11T00:46:39.300Z,24.84
2022-10-11T00:49:29.006Z,24.88
2022-10-11T00:52:31.995Z,24.94
2022-10-11T00:55:24.936Z,24.87
2022-10-11T00:58:14.631Z,25.06
2022-10-11T01:01:10.550Z,25.17
2022-10-11T01:03:59.956Z,25.05
2022-10-11T01:06:42.920Z,25.07
2022-10-11T01:09:31.632Z,24.98
2022-10-11T01:12:32.642Z,25.24
2022-10-11T01:15:46.734Z,25.28
2022-10-11T01:19:22.928Z,25.31
2022-10-11T01:22:17.686Z,25.52
2022-10-11T01:25:11.927Z,25.29
2022-10-11T01:28:03.691Z,25.36
2022-10-11T01:30:51.970Z,25.28
2022-10-11T01:33:40.639Z,25.39
2022-10-11T01:36:59.103Z,25.41
2022-10-11T01:40:00.672Z,25.40
2022-10-11T01:42:44.635Z,25.53
2022-10-11T01:45:35.684Z,25.41
2022-10-11T01:48:17.840Z,25.49
2022-10-11T01:51:09.638Z,25.38
2022-10-11T01:54:01.019Z,25.38
2022-10-11T01:57:14.115Z,25.43
2022-10-11T02:00:21.921Z,25.25
2022-10-11T02:03:26.679Z,25.52
2022-10-11T02:06:18.963Z,25.66
2022-10-11T02:09:39.625Z,25.83
2022-10-11T02:12:38.639Z,25.76
2022-10-11T02:15:24.205Z,25.63
2022-10-11T02:18:16.703Z,25.58
2022-10-11T02:21:09.736Z,25.79
2022-10-11T02:24:09.705Z,25.73
2022-10-11T02:27:00.905Z,25.72
2022-10-11T02:29:47.653Z,25.53
2022-10-11T02:32:37.956Z,25.77
2022-10-11T02:35:20.616Z,25.96
2022-10-11T02:38:31.934Z,26.15
2022-10-11T02:41:50.614Z,26.30
2022-10-11T02:44:44.855Z,26.05
2022-10-11T02:47:33.621Z,26.14
2022-10-11T02:50:23.110Z,26.18
2022-10-11T02:53:04.796Z,26.33
2022-10-11T02:55:53.914Z,26.48
2022-10-11T02:58:35.631Z,26.43
2022-10-11T03:01:30.512Z,26.83
2022-10-11T03:04:19.645Z,26.92
2022-10-11T03:07:08.548Z,26.73
2022-10-11T03:09:57.707Z,26.93
2022-10-11T03:12:39.906Z,26.95
2022-10-11T03:15:28.631Z,27.19
2022-10-11T03:18:11.913Z,27.07
2022-10-11T03:21:00.687Z,27.13
2022-10-11T03:23:43.914Z,26.69
2022-10-11T03:26:32.623Z,26.93
2022-10-11T03:29:21.536Z,26.71
2022-10-11T03:32:11.604Z,26.79
2022-10-11T03:35:00.633Z,27.10
2022-10-11T03:37:42.861Z,26.98
2022-10-11T03:40:31.652Z,27.38
2022-10-11T03:43:20.983Z,27.59
2022-10-11T03:46:04.035Z,27.18
2022-10-11T03:48:46.828Z,27.75
2022-10-11T03:51:35.692Z,27.81
2022-10-11T03:54:17.859Z,27.98
2022-10-11T03:57:06.632Z,27.98
2022-10-11T03:59:49.305Z,28.45
2022-10-11T04:02:39.393Z,28.13
2022-10-11T04:05:21.819Z,27.94
2022-10-11T04:08:12.290Z,28.40
2022-10-11T04:11:01.904Z,28.69
2022-10-11T04:13:44.657Z,28.91
2022-10-11T04:16:34.096Z,28.87
2022-10-11T04:19:15.625Z,28.26
2022-10-11T04:22:05.078Z,28.72
2022-10-11T04:24:47.610Z,29.21
2022-10-11T04:27:37.902Z,29.58
2022-10-11T04:30:20.652Z,29.55
2022-10-11T04:33:12.386Z,29.78
2022-10-11T04:35:54.635Z,29.39
2022-10-11T04:38:43.929Z,29.83
2022-10-11T04:41:25.685Z,30.01
2022-10-11T04:44:14.468Z,30.01
2022-10-11T04:46:57.625Z,30.08
2022-10-11T04:49:47.090Z,30.32
2022-10-11T04:52:29.674Z,30.76
2022-10-11T04:55:18.943Z,30.86
2022-10-11T04:58:01.633Z,30.77
2022-10-11T05:00:51.416Z,30.90
2022-10-11T05:03:40.611Z,30.99
2022-10-11T05:06:23.081Z,31.21
2022-10-11T05:09:11.637Z,31.22
2022-10-11T05:11:54.224Z,31.77
2022-10-11T05:14:43.970Z,31.25
2022-10-11T05:17:26.048Z,31.83
2022-10-11T05:20:15.684Z,31.08
2022-10-11T05:22:57.879Z,31.29
2022-10-11T05:25:46.684Z,31.67
2022-10-11T05:28:28.975Z,30.63
2022-10-11T05:31:17.609Z,31.32
2022-10-11T05:34:01.012Z,31.87
2022-10-11T05:36:48.605Z,30.59
2022-10-11T05:39:38.688Z,31.31
2022-10-11T05:42:28.034Z,31.58
2022-10-11T05:45:10.635Z,31.26
2022-10-11T05:47:59.191Z,30.73
2022-10-11T05:50:41.616Z,30.69
2022-10-11T05:53:29.977Z,30.83
2022-10-11T05:56:13.624Z,31.30
2022-10-11T05:59:02.657Z,31.09
2022-10-11T06:01:57.621Z,30.98
2022-10-11T06:04:52.624Z,31.11
2022-10-11T06:07:45.788Z,31.08
2022-10-11T06:10:28.697Z,30.66
2022-10-11T06:13:17.928Z,30.58
2022-10-11T06:16:00.941Z,30.80
2022-10-11T06:18:48.957Z,30.77
2022-10-11T06:21:31.610Z,30.94
2022-10-11T06:24:20.984Z,31.22
2022-10-11T06:27:03.670Z,31.00
2022-10-11T06:29:51.899Z,31.09
2022-10-11T06:32:34.691Z,31.50
2022-10-11T06:35:22.926Z,31.60
2022-10-11T06:38:04.688Z,31.67
2022-10-11T06:40:52.953Z,31.48
2022-10-11T06:43:34.649Z,31.96
2022-10-11T06:46:25.056Z,31.93
2022-10-11T06:49:07.596Z,32.20
2022-10-11T06:51:55.958Z,31.86
2022-10-11T06:54:43.891Z,30.81
2022-10-11T06:57:33.097Z,31.26
2022-10-11T07:00:15.643Z,31.38
2022-10-11T07:03:03.954Z,31.20
2022-10-11T07:05:46.596Z,31.34
2022-10-11T07:08:34.908Z,31.82
2022-10-11T07:11:23.627Z,32.03
2022-10-11T07:14:13.899Z,32.37
2022-10-11T07:16:56.617Z,31.92
2022-10-11T07:19:44.885Z,32.04
2022-10-11T07:22:26.621Z,31.12
2022-10-11T07:25:15.902Z,31.20
2022-10-11T07:27:58.584Z,31.06
2022-10-11T07:30:50.896Z,30.89
2022-10-11T07:33:33.598Z,31.13
2022-10-11T07:36:24.812Z,31.23
2022-10-11T07:39:07.611Z,31.08
2022-10-11T07:41:55.898Z,31.39
2022-10-11T07:44:38.603Z,30.90
2022-10-11T07:47:26.897Z,30.98
2022-10-11T07:50:09.690Z,30.74
2022-10-11T07:52:57.999Z,30.68
2022-10-11T07:55:47.671Z,30.81
2022-10-11T07:58:35.957Z,30.74
2022-10-11T08:01:19.736Z,30.73
2022-10-11T08:04:09.059Z,31.03
2022-10-11T08:06:53.480Z,30.55
2022-10-11T08:09:35.819Z,30.67
2022-10-11T08:12:24.678Z,30.78
2022-10-11T08:15:13.905Z,31.16
2022-10-11T08:17:56.592Z,31.50
2022-10-11T08:20:41.387Z,31.64
2022-10-11T08:23:34.943Z,31.40
2022-10-11T08:26:23.931Z,30.69
2022-10-11T08:29:09.667Z,30.74
2022-10-11T08:31:51.972Z,30.51
2022-10-11T08:34:40.764Z,31.09
2022-10-11T08:37:29.540Z,30.65
2022-10-11T08:40:13.639Z,30.79
2022-10-11T08:43:08.946Z,30.83
2022-10-11T08:46:05.801Z,30.81
2022-10-11T08:48:56.941Z,31.09
2022-10-11T08:51:46.669Z,31.12
2022-10-11T08:54:52.950Z,30.87
2022-10-11T08:57:39.608Z,31.18
2022-10-11T09:00:22.736Z,31.31
2022-10-11T09:03:19.621Z,31.05
2022-10-11T09:06:26.346Z,30.57
2022-10-11T09:09:36.658Z,30.90
2022-10-11T09:12:51.881Z,31.01
2022-10-11T09:16:14.670Z,30.86
2022-10-11T09:19:27.939Z,30.63
2022-10-11T09:22:28.112Z,31.03
2022-10-11T09:25:37.995Z,30.09
2022-10-11T09:28:31.545Z,30.55
2022-10-11T09:31:20.601Z,30.98
2022-10-11T09:34:04.076Z,30.82
2022-10-11T09:37:08.589Z,31.19
2022-10-11T09:40:02.885Z,31.10
2022-10-11T09:42:51.680Z,30.63
2022-10-11T09:45:33.888Z,30.89
2022-10-11T09:48:36.634Z,30.55
2022-10-11T09:51:30.912Z,30.48
2022-10-11T09:54:19.588Z,30.52
2022-10-11T09:57:01.860Z,30.48
2022-10-11T09:59:51.610Z,30.34
2022-10-11T10:02:41.624Z,30.38
2022-10-11T10:05:35.608Z,30.70
2022-10-11T10:08:19.752Z,30.59
2022-10-11T10:11:12.680Z,30.72
2022-10-11T10:13:59.947Z,30.42
2022-10-11T10:16:48.613Z,30.45
2022-10-11T10:19:30.895Z,30.38
2022-10-11T10:22:35.664Z,30.70
2022-10-11T10:25:33.922Z,30.81
2022-10-11T10:28:40.798Z,30.71
2022-10-11T10:31:55.273Z,30.81
2022-10-11T10:35:07.676Z,30.71
2022-10-11T10:38:05.146Z,30.95
2022-10-11T10:41:00.600Z,30.92
2022-10-11T10:43:45.871Z,30.79
2022-10-11T10:46:54.587Z,30.99
2022-10-11T10:53:18.603Z,30.88
2022-10-11T10:56:12.901Z,30.77
2022-10-11T10:59:29.645Z,30.60
2022-10-11T11:02:41.153Z,30.59
2022-10-11T11:05:56.597Z,30.59
2022-10-11T11:09:00.585Z,30.70
2022-10-11T11:12:30.612Z,30.66
2022-10-11T11:15:32.632Z,30.49
2022-10-11T11:18:34.552Z,30.55
2022-10-11T11:21:23.624Z,30.53
2022-10-11T11:24:29.896Z,30.51
2022-10-11T11:27:34.601Z,30.42
2022-10-11T11:30:31.929Z,30.24
2022-10-11T11:33:49.114Z,30.32
2022-10-11T11:36:56.960Z,30.21
2022-10-11T11:39:51.601Z,30.11
2022-10-11T11:42:40.587Z,29.97
2022-10-11T11:45:25.905Z,29.98
2022-10-11T11:48:21.635Z,30.03
2022-10-11T11:51:42.169Z,29.84
2022-10-11T11:54:39.585Z,29.77
2022-10-11T11:57:35.933Z,29.81
2022-10-11T12:00:35.638Z,29.76
2022-10-11T12:03:41.578Z,29.62
2022-10-11T12:07:04.051Z,29.89
2022-10-11T12:09:51.441Z,29.80
2022-10-11T12:12:43.607Z,29.87
2022-10-11T12:15:33.862Z,29.89
2022-10-11T12:18:24.652Z,29.81
2022-10-11T12:21:30.447Z,29.85
2022-10-11T12:24:31.607Z,29.86
2022-10-11T12:27:52.593Z,29.96
2022-10-11T12:30:56.927Z,29.80
2022-10-11T12:33:41.588Z,29.75
2022-10-11T12:37:06.571Z,29.80
2022-10-11T12:40:03.590Z,29.78
2022-10-11T12:43:23.950Z,29.70
2022-10-11T12:46:26.662Z,29.58
2022-10-11T12:49:37.280Z,29.55
2022-10-11T12:52:45.582Z,29.50
2022-10-11T12:55:47.021Z,29.37
2022-10-11T12:58:33.608Z,29.38
2022-10-11T13:01:33.026Z,29.29
2022-10-11T13:04:24.632Z,29.27
2022-10-11T13:07:11.984Z,29.17
2022-10-11T13:10:02.586Z,29.17
2022-10-11T13:12:51.077Z,28.90
2022-10-11T13:15:39.621Z,28.93
2022-10-11T13:18:23.910Z,28.83
2022-10-11T13:21:27.607Z,28.74
2022-10-11T13:24:18.114Z,28.75
2022-10-11T13:27:06.576Z,28.78
2022-10-11T13:29:54.043Z,28.67
2022-10-11T13:32:44.600Z,28.55
2022-10-11T13:35:47.911Z,28.54
2022-10-11T13:38:42.597Z,28.51
2022-10-11T13:41:25.189Z,28.69
2022-10-11T13:44:14.024Z,28.64
2022-10-11T13:46:57.045Z,28.13
2022-10-11T13:49:47.594Z,27.98
2022-10-11T13:52:32.115Z,28.38
2022-10-11T13:55:44.593Z,26.85
2022-10-11T13:58:53.906Z,26.48
2022-10-11T14:01:48.759Z,25.41
2022-10-11T14:04:50.034Z,25.70
2022-10-11T14:07:37.610Z,25.31
2022-10-11T14:10:22.701Z,24.88
2022-10-11T14:13:19.599Z,24.86
2022-10-11T14:16:14.040Z,24.35
2022-10-11T14:19:24.613Z,24.00
2022-10-11T14:22:14.603Z,23.32
2022-10-11T14:25:03.576Z,22.47
2022-10-11T14:27:45.988Z,21.62
2022-10-11T14:30:39.582Z,21.90
2022-10-11T14:33:22.804Z,21.92
2022-10-11T14:36:11.588Z,22.23
2022-10-11T14:39:00.547Z,21.97
2022-10-11T14:41:49.610Z,21.64
2022-10-11T14:44:38.599Z,21.88
2022-10-11T14:47:24.887Z,21.76
2022-10-11T14:50:31.585Z,21.37
2022-10-11T14:53:14.883Z,21.90
2022-10-11T14:56:03.790Z,21.55
2022-10-11T14:58:46.050Z,21.83
2022-10-11T15:01:34.633Z,22.17
2022-10-11T15:04:24.302Z,22.40
2022-10-11T15:07:07.585Z,22.78
2022-10-11T15:09:49.748Z,22.44
2022-10-11T15:12:38.590Z,22.39
2022-10-11T15:15:24.254Z,22.69
2022-10-11T15:18:14.576Z,22.53
2022-10-11T15:20:57.201Z,22.61
2022-10-11T15:23:45.580Z,22.28
2022-10-11T15:26:37.570Z,21.76
2022-10-11T15:29:29.632Z,21.78
2022-10-11T15:32:11.980Z,22.22
2022-10-11T15:35:00.581Z,21.70
2022-10-11T15:37:50.504Z,21.25
2022-10-11T15:40:49.629Z,21.74
2022-10-11T15:43:38.622Z,21.63
2022-10-11T15:46:23.850Z,21.69
2022-10-11T15:49:20.590Z,21.94
2022-10-11T15:52:02.901Z,21.76
2022-10-11T15:54:51.607Z,22.05
2022-10-11T15:57:33.882Z,21.81
2022-10-11T16:00:22.622Z,22.13
2022-10-11T16:03:06.966Z,21.83
2022-10-11T16:05:55.612Z,21.91
2022-10-11T16:08:38.057Z,22.18
2022-10-11T16:11:26.621Z,22.23
2022-10-11T16:14:09.075Z,22.26
2022-10-11T16:17:02.629Z,22.61
2022-10-11T16:19:51.568Z,22.48
2022-10-11T16:22:40.928Z,22.37
2022-10-11T16:25:23.643Z,22.16
2022-10-11T16:28:13.878Z,22.28
2022-10-11T16:30:55.584Z,22.34
2022-10-11T16:33:48.175Z,22.01
2022-10-11T16:36:43.577Z,22.19
2022-10-11T16:39:25.822Z,22.24
2022-10-11T16:42:14.629Z,22.21
2022-10-11T16:45:02.877Z,22.29
2022-10-11T16:47:45.582Z,22.44
2022-10-11T16:50:28.080Z,22.35
2022-10-11T16:53:16.575Z,22.22
2022-10-11T16:56:05.971Z,22.29
2022-10-11T16:58:47.884Z,22.17
2022-10-11T17:01:37.586Z,22.43
2022-10-11T17:04:25.848Z,22.09
2022-10-11T17:07:08.576Z,22.24
2022-10-11T17:09:59.050Z,22.51
2022-10-11T17:12:49.215Z,22.43
2022-10-11T17:15:38.593Z,22.62
2022-10-11T17:18:20.853Z,22.57
2022-10-11T17:21:10.581Z,22.11
2022-10-11T17:23:52.930Z,22.26
2022-10-11T17:26:42.566Z,22.42
2022-10-11T17:29:25.407Z,22.36
2022-10-11T17:32:14.672Z,22.37
2022-10-11T17:34:58.423Z,22.54
2022-10-11T17:37:48.647Z,22.72
2022-10-11T17:40:30.854Z,22.68
2022-10-11T17:43:19.643Z,22.81
2022-10-11T17:46:10.035Z,22.76
2022-10-11T17:49:02.582Z,22.72
2022-10-11T17:54:40.172Z,22.84
2022-10-11T17:57:22.631Z,22.88
2022-10-11T18:00:13.809Z,22.98
2022-10-11T18:03:08.625Z,22.81
2022-10-11T18:05:56.848Z,22.98
2022-10-11T18:08:40.542Z,22.88
2022-10-11T18:11:30.141Z,22.81
2022-10-11T18:14:12.616Z,22.85
2022-10-11T18:17:00.977Z,22.68
2022-10-11T18:19:44.540Z,22.77
2022-10-11T18:22:26.900Z,22.75
2022-10-11T18:25:15.556Z,22.76
2022-10-11T18:28:04.942Z,22.79
2022-10-11T18:30:52.562Z,22.79
2022-10-11T18:33:42.230Z,22.68
2022-10-11T18:36:27.877Z,22.79
2022-10-11T18:39:13.565Z,22.89
2022-10-11T18:42:03.616Z,22.79
2022-10-11T18:44:54.292Z,22.87
2022-10-11T18:47:37.639Z,22.84
2022-10-11T18:50:26.881Z,22.86
2022-10-11T18:53:10.640Z,22.66
2022-10-11T18:55:58.913Z,22.83
2022-10-11T18:58:42.660Z,22.73
2022-10-11T19:01:39.172Z,22.83
2022-10-11T19:04:36.553Z,22.87
2022-10-11T19:07:25.619Z,22.75
2022-10-11T19:10:08.986Z,22.78
2022-10-11T19:12:57.645Z,22.72
2022-10-11T19:15:44.002Z,22.70
2022-10-11T19:18:33.559Z,22.78
2022-10-11T19:21:18.893Z,22.77
2022-10-11T19:24:07.542Z,22.71
2022-10-11T19:27:02.325Z,22.71
2022-10-11T19:29:50.806Z,22.70
2022-10-11T19:32:32.611Z,22.71
2022-10-11T19:35:20.998Z,22.71
2022-10-11T19:38:04.049Z,22.71
2022-10-11T19:40:52.691Z,22.75
2022-10-11T19:43:35.086Z,22.65
2022-10-11T19:49:30.832Z,22.74
2022-10-11T19:52:20.605Z,22.70
2022-10-11T19:55:03.824Z,22.68
2022-10-11T19:57:52.560Z,22.76
2022-10-11T20:00:34.852Z,22.81
2022-10-11T20:03:29.590Z,22.88
2022-10-11T20:06:18.931Z,22.82
2022-10-11T20:09:27.306Z,22.77
2022-10-11T20:12:10.560Z,22.82
2022-10-11T20:14:52.834Z,22.78
2022-10-11T20:17:56.558Z,22.64
2022-10-11T20:20:45.534Z,22.76
2022-10-11T20:23:34.822Z,22.72
2022-10-11T20:26:23.549Z,22.40
2022-10-11T20:29:05.723Z,22.27
2022-10-11T20:31:54.548Z,22.76
2022-10-11T20:34:40.462Z,22.46
2022-10-11T20:37:29.764Z,22.47
2022-10-11T20:40:18.868Z,22.76
2022-10-11T20:43:01.844Z,22.65
2022-10-11T20:45:50.870Z,21.79
2022-10-11T20:48:33.533Z,22.44
2022-10-11T20:51:15.776Z,22.38
2022-10-11T20:54:05.588Z,22.08
2022-10-11T20:56:53.844Z,22.11
2022-10-11T20:59:36.538Z,22.27
2022-10-11T21:02:19.159Z,22.40
2022-10-11T21:05:08.555Z,22.27
2022-10-11T21:07:51.374Z,22.46
2022-10-11T21:10:40.593Z,22.38
2022-10-11T21:13:29.842Z,22.31
2022-10-11T21:16:18.613Z,22.27
2022-10-11T21:19:08.892Z,22.26
2022-10-11T21:21:53.809Z,22.18
2022-10-11T21:24:41.868Z,22.40
2022-10-11T21:27:23.531Z,21.99
2022-10-11T21:30:12.834Z,22.09
2022-10-11T21:32:55.523Z,22.02
2022-10-11T21:35:46.822Z,22.39
2022-10-11T21:38:28.580Z,22.23
2022-10-11T21:41:24.052Z,22.27
2022-10-11T21:44:16.509Z,22.26
2022-10-11T21:47:07.501Z,22.24
2022-10-11T21:49:56.390Z,22.29
2022-10-11T21:52:54.069Z,22.02
2022-10-11T21:55:37.549Z,22.30
2022-10-11T21:58:25.818Z,22.13
2022-10-11T22:01:08.564Z,22.07
2022-10-11T22:04:03.405Z,21.89
2022-10-11T22:07:08.561Z,21.79
2022-10-11T22:09:56.889Z,21.75
2022-10-11T22:12:39.589Z,21.94
2022-10-11T22:15:27.814Z,21.64
2022-10-11T22:18:10.527Z,21.39
2022-10-11T22:20:53.079Z,21.44
2022-10-11T22:23:41.574Z,21.54
2022-10-11T22:26:33.832Z,21.49
2022-10-11T22:29:16.530Z,21.40
2022-10-11T22:31:58.752Z,21.43
2022-10-11T22:34:47.526Z,21.70
2022-10-11T22:37:29.697Z,21.63
2022-10-11T22:40:18.575Z,21.27
2022-10-11T22:43:06.800Z,21.26
2022-10-11T22:45:49.517Z,21.09
2022-10-11T22:48:38.439Z,21.14
2022-10-11T22:51:27.540Z,21.43
2022-10-11T22:54:16.636Z,21.07
2022-10-11T22:56:59.800Z,21.09
2022-10-11T22:59:48.524Z,21.17
2022-10-11T23:02:30.824Z,21.24
2022-10-11T23:05:25.534Z,21.24
2022-10-11T23:08:10.478Z,21.05
2022-10-11T23:10:59.516Z,21.27
2022-10-11T23:13:41.723Z,21.57
2022-10-11T23:16:30.572Z,21.48
2022-10-11T23:19:12.709Z,21.36
2022-10-11T23:22:01.556Z,21.23
2022-10-11T23:24:50.518Z,21.46
2022-10-11T23:27:32.871Z,21.61
2022-10-11T23:30:22.534Z,21.66
2022-10-11T23:33:04.833Z,21.63
2022-10-11T23:35:53.519Z,21.63
2022-10-11T23:38:35.859Z,21.66
2022-10-11T23:41:24.516Z,21.76
2022-10-11T23:44:06.829Z,21.65
2022-10-11T23:46:55.857Z,21.65
2022-10-11T23:49:37.820Z,21.61
2022-10-11T23:52:26.581Z,21.36
2022-10-11T23:55:09.245Z,21.35
2022-10-11T23:57:58.571Z,21.43
